createdAt,value
2018-07-08T00:00:03.046Z,15.00
2018-07-08T00:02:31.525Z,15.00
2018-07-08T00:04:59.954Z,15.00
2018-07-08T00:07:28.391Z,15.00
2018-07-08T00:09:56.864Z,14.90
2018-07-08T00:12:25.291Z,14.90
2018-07-08T00:14:53.741Z,14.90
2018-07-08T00:17:22.299Z,14.90
2018-07-08T00:19:50.790Z,14.90
2018-07-08T00:22:19.476Z,14.80
2018-07-08T00:24:47.934Z,14.80
2018-07-08T00:27:16.424Z,14.80
2018-07-08T00:29:44.887Z,14.80
2018-07-08T00:32:13.408Z,14.70
2018-07-08T00:34:41.859Z,14.70
2018-07-08T00:37:10.251Z,14.70
2018-07-08T00:39:38.711Z,14.70
2018-07-08T00:42:07.148Z,14.60
2018-07-08T00:44:35.631Z,14.60
2018-07-08T00:47:04.056Z,14.60
2018-07-08T00:49:32.527Z,14.60
2018-07-08T00:52:00.923Z,14.60
2018-07-08T00:54:29.383Z,14.60
2018-07-08T00:56:57.811Z,14.60
2018-07-08T00:59:26.309Z,14.60
2018-07-08T01:01:54.746Z,14.50
2018-07-08T01:04:23.209Z,14.50
2018-07-08T01:06:51.624Z,14.50
2018-07-08T01:09:20.060Z,14.40
2018-07-08T01:11:48.469Z,14.40
2018-07-08T01:14:17.843Z,14.30
2018-07-08T01:16:46.255Z,14.30
2018-07-08T01:19:14.712Z,14.20
2018-07-08T01:21:43.122Z,14.20
2018-07-08T01:24:11.589Z,14.10
2018-07-08T01:26:40.037Z,14.10
2018-07-08T01:29:08.529Z,14.10
2018-07-08T01:31:36.961Z,14.00
2018-07-08T01:34:05.415Z,14.00
2018-07-08T01:36:33.798Z,14.00
2018-07-08T01:39:02.263Z,13.90
2018-07-08T01:41:30.689Z,13.90
2018-07-08T01:43:59.170Z,13.90
2018-07-08T01:46:27.623Z,13.80
2018-07-08T01:48:56.095Z,13.80
2018-07-08T01:51:24.511Z,13.80
2018-07-08T01:53:53.287Z,13.70
2018-07-08T01:56:21.688Z,13.70
2018-07-08T01:58:50.257Z,13.70
2018-07-08T02:01:18.695Z,13.70
2018-07-08T02:03:47.146Z,13.70
2018-07-08T02:06:15.607Z,13.60
2018-07-08T02:08:44.108Z,13.60
2018-07-08T02:11:12.568Z,13.50
2018-07-08T02:13:41.096Z,13.50
2018-07-08T02:16:09.556Z,13.50
2018-07-08T02:18:38.142Z,13.40
2018-07-08T02:21:06.575Z,13.40
2018-07-08T02:23:35.043Z,13.40
2018-07-08T02:26:03.472Z,13.40
2018-07-08T02:28:32.367Z,13.40
2018-07-08T02:31:01.051Z,13.40
2018-07-08T02:33:29.488Z,13.30
2018-07-08T02:35:57.948Z,13.30
2018-07-08T02:38:26.410Z,13.30
2018-07-08T02:40:54.846Z,13.30
2018-07-08T02:45:54.227Z,13.20
2018-07-08T02:48:22.700Z,13.20
2018-07-08T02:50:51.120Z,13.20
2018-07-08T02:53:19.527Z,13.20
2018-07-08T02:55:48.026Z,13.20
2018-07-08T02:58:16.452Z,13.10
2018-07-08T03:00:44.891Z,13.10
2018-07-08T03:03:13.296Z,13.10
2018-07-08T03:05:41.783Z,13.00
2018-07-08T03:10:38.343Z,12.90
2018-07-08T03:13:06.749Z,12.90
2018-07-08T03:15:35.196Z,12.90
2018-07-08T03:20:31.785Z,12.80
2018-07-08T03:23:00.200Z,12.80
2018-07-08T03:25:28.697Z,12.80
2018-07-08T03:27:57.156Z,12.80
2018-07-08T03:30:25.657Z,12.80
2018-07-08T03:32:54.088Z,12.70
2018-07-08T03:35:22.637Z,12.70
2018-07-08T03:37:51.089Z,12.60
2018-07-08T03:40:19.500Z,12.60
2018-07-08T03:42:48.179Z,12.60
2018-07-08T03:45:16.642Z,12.60
2018-07-08T03:47:45.140Z,12.60
2018-07-08T03:50:13.545Z,12.60
2018-07-08T03:52:42.011Z,12.70
2018-07-08T03:55:10.436Z,12.60
2018-07-08T03:57:38.880Z,12.60
2018-07-08T04:00:07.307Z,12.60
2018-07-08T04:02:35.764Z,12.60
2018-07-08T04:05:04.193Z,12.60
2018-07-08T04:07:32.678Z,12.60
2018-07-08T04:10:01.116Z,12.60
2018-07-08T04:12:29.560Z,12.60
2018-07-08T04:14:57.970Z,12.60
2018-07-08T04:17:26.463Z,12.60
2018-07-08T04:19:54.864Z,12.60
2018-07-08T04:22:23.320Z,12.60
2018-07-08T04:24:51.731Z,12.70
2018-07-08T04:27:20.181Z,12.70
2018-07-08T04:29:48.689Z,12.70
2018-07-08T04:32:17.785Z,12.80
2018-07-08T04:34:46.179Z,12.80
2018-07-08T04:37:14.632Z,12.80
2018-07-08T04:39:43.029Z,12.90
2018-07-08T04:42:11.495Z,12.90
2018-07-08T04:44:39.956Z,12.90
2018-07-08T04:47:08.368Z,12.90
2018-07-08T04:49:36.802Z,12.90
2018-07-08T04:52:05.307Z,13.00
2018-07-08T04:54:33.783Z,13.00
2018-07-08T04:57:02.200Z,13.00
2018-07-08T04:59:30.649Z,13.10
2018-07-08T05:04:27.172Z,13.20
2018-07-08T05:06:55.564Z,13.20
2018-07-08T05:09:24.056Z,13.30
2018-07-08T05:11:52.446Z,13.30
2018-07-08T05:14:20.890Z,13.40
2018-07-08T05:16:49.280Z,13.50
2018-07-08T05:19:17.691Z,13.60
2018-07-08T05:21:46.083Z,13.70
2018-07-08T05:24:14.510Z,13.70
2018-07-08T05:26:42.883Z,13.80
2018-07-08T05:29:12.276Z,13.90
2018-07-08T05:31:40.675Z,14.00
2018-07-08T05:34:09.104Z,14.10
2018-07-08T05:36:37.504Z,14.20
2018-07-08T05:39:06.676Z,14.30
2018-07-08T05:41:35.100Z,14.40
2018-07-08T05:44:03.554Z,14.50
2018-07-08T05:46:32.023Z,14.60
2018-07-08T05:49:00.451Z,14.70
2018-07-08T05:51:28.830Z,14.80
2018-07-08T05:53:57.255Z,14.90
2018-07-08T05:56:25.728Z,14.90
2018-07-08T05:58:54.193Z,15.00
2018-07-08T06:01:22.585Z,15.10
2018-07-08T06:03:51.052Z,15.10
2018-07-08T06:06:19.815Z,15.30
2018-07-08T06:08:48.533Z,15.40
2018-07-08T06:11:17.223Z,15.60
2018-07-08T06:13:45.667Z,15.80
2018-07-08T06:16:14.070Z,15.90
2018-07-08T06:18:42.652Z,16.10
2018-07-08T06:21:11.056Z,16.20
2018-07-08T06:23:39.466Z,16.30
2018-07-08T06:26:08.084Z,16.50
2018-07-08T06:28:36.510Z,16.60
2018-07-08T06:31:05.038Z,16.70
2018-07-08T06:33:33.471Z,16.90
2018-07-08T06:36:01.871Z,17.00
2018-07-08T06:38:30.296Z,17.10
2018-07-08T06:40:58.716Z,17.20
2018-07-08T06:43:27.314Z,17.30
2018-07-08T06:45:56.032Z,17.50
2018-07-08T06:48:24.571Z,17.60
2018-07-08T06:50:53.182Z,17.80
2018-07-08T06:53:22.003Z,17.90
2018-07-08T06:55:50.608Z,18.00
2018-07-08T06:58:19.387Z,18.00
2018-07-08T07:00:48.551Z,18.10
2018-07-08T07:03:17.068Z,18.20
2018-07-08T07:05:45.824Z,18.30
2018-07-08T07:08:14.319Z,18.40
2018-07-08T07:10:42.866Z,18.50
2018-07-08T07:13:11.930Z,18.60
2018-07-08T07:15:40.319Z,18.60
2018-07-08T07:18:08.773Z,18.70
2018-07-08T07:20:37.163Z,18.90
2018-07-08T07:23:05.617Z,19.00
2018-07-08T07:25:34.081Z,19.10
2018-07-08T07:28:02.483Z,19.10
2018-07-08T07:30:30.969Z,19.30
2018-07-08T07:32:59.367Z,19.50
2018-07-08T07:35:27.812Z,19.70
2018-07-08T07:37:56.194Z,19.80
2018-07-08T07:40:24.642Z,19.80
2018-07-08T07:42:53.036Z,19.90
2018-07-08T07:45:21.502Z,20.00
2018-07-08T07:47:49.896Z,20.10
2018-07-08T07:50:18.326Z,20.20
2018-07-08T07:52:46.715Z,20.40
2018-07-08T07:57:43.259Z,20.60
2018-07-08T08:00:11.683Z,20.70
2018-07-08T08:02:40.079Z,20.70
2018-07-08T08:05:08.702Z,20.70
2018-07-08T08:07:37.259Z,20.80
2018-07-08T08:10:06.829Z,20.80
2018-07-08T08:12:35.447Z,20.90
2018-07-08T08:15:04.025Z,21.00
2018-07-08T08:17:32.508Z,21.10
2018-07-08T08:20:00.975Z,21.20
2018-07-08T08:22:30.368Z,21.30
2018-07-08T08:24:58.763Z,21.50
2018-07-08T08:27:27.258Z,21.70
2018-07-08T08:29:55.697Z,21.60
2018-07-08T08:32:24.133Z,21.60
2018-07-08T08:34:53.743Z,21.80
2018-07-08T08:37:24.048Z,22.00
2018-07-08T08:39:53.164Z,22.10
2018-07-08T08:44:50.510Z,22.20
2018-07-08T08:47:19.413Z,22.40
2018-07-08T08:49:49.063Z,22.40
2018-07-08T08:52:17.490Z,22.40
2018-07-08T08:54:45.915Z,22.60
2018-07-08T08:57:14.379Z,22.90
2018-07-08T08:59:42.830Z,23.10
2018-07-08T09:02:11.651Z,23.30
2018-07-08T09:04:40.971Z,23.50
2018-07-08T09:07:10.527Z,23.70
2018-07-08T09:09:38.970Z,23.90
2018-07-08T09:12:07.900Z,23.80
2018-07-08T09:14:36.627Z,24.00
2018-07-08T09:17:05.030Z,24.10
2018-07-08T09:19:33.472Z,24.30
2018-07-08T09:22:01.884Z,24.60
2018-07-08T09:24:30.340Z,24.70
2018-07-08T09:26:58.744Z,24.70
2018-07-08T09:29:27.208Z,24.70
2018-07-08T09:31:55.635Z,24.60
2018-07-08T09:34:24.083Z,24.60
2018-07-08T09:36:52.631Z,24.70
2018-07-08T09:39:21.087Z,24.80
2018-07-08T09:41:49.505Z,24.80
2018-07-08T09:44:18.415Z,25.00
2018-07-08T09:46:47.852Z,25.10
2018-07-08T09:49:16.479Z,25.10
2018-07-08T09:51:45.342Z,25.20
2018-07-08T09:54:13.797Z,25.40
2018-07-08T09:56:42.195Z,25.70
2018-07-08T10:01:41.714Z,25.90
2018-07-08T10:04:11.575Z,25.80
2018-07-08T10:06:40.411Z,25.90
2018-07-08T10:09:10.734Z,25.80
2018-07-08T10:11:39.177Z,25.80
2018-07-08T10:14:08.546Z,26.10
2018-07-08T10:16:36.984Z,26.10
2018-07-08T10:19:05.413Z,26.00
2018-07-08T10:21:33.937Z,26.00
2018-07-08T10:24:02.453Z,26.10
2018-07-08T10:26:30.919Z,26.30
2018-07-08T10:28:59.423Z,26.40
2018-07-08T10:31:39.024Z,26.50
2018-07-08T10:34:07.417Z,26.70
2018-07-08T10:36:35.853Z,27.00
2018-07-08T10:39:05.144Z,27.20
2018-07-08T10:41:33.665Z,27.00
2018-07-08T10:44:02.080Z,26.80
2018-07-08T10:46:30.564Z,26.90
2018-07-08T10:48:59.043Z,27.10
2018-07-08T10:51:27.490Z,27.50
2018-07-08T10:56:24.026Z,27.80
2018-07-08T10:58:52.513Z,28.10
2018-07-08T11:01:20.968Z,28.20
2018-07-08T11:03:49.358Z,28.40
2018-07-08T11:06:17.795Z,28.50
2018-07-08T11:08:46.195Z,28.50
2018-07-08T11:11:14.620Z,28.60
2018-07-08T11:13:43.035Z,28.60
2018-07-08T11:16:11.483Z,28.70
2018-07-08T11:18:39.888Z,28.50
2018-07-08T11:21:08.328Z,28.60
2018-07-08T11:23:36.747Z,28.80
2018-07-08T11:26:06.814Z,28.40
2018-07-08T11:28:35.307Z,28.40
2018-07-08T11:31:03.776Z,28.20
2018-07-08T11:33:32.186Z,28.40
2018-07-08T11:36:00.626Z,28.50
2018-07-08T11:38:29.040Z,28.60
2018-07-08T11:40:57.475Z,28.80
2018-07-08T11:43:25.887Z,28.70
2018-07-08T11:45:54.419Z,28.90
2018-07-08T11:48:22.846Z,29.10
2018-07-08T11:50:51.288Z,29.10
2018-07-08T11:53:19.687Z,29.10
2018-07-08T11:55:48.124Z,29.30
2018-07-08T11:58:16.512Z,29.10
2018-07-08T12:00:44.908Z,29.20
2018-07-08T12:03:13.340Z,29.30
2018-07-08T12:05:41.798Z,29.50
2018-07-08T12:08:10.265Z,29.40
2018-07-08T12:10:38.667Z,29.30
2018-07-08T12:13:07.140Z,29.10
2018-07-08T12:15:35.593Z,29.40
2018-07-08T12:18:04.041Z,29.70
2018-07-08T12:20:32.443Z,29.80
2018-07-08T12:23:00.917Z,29.70
2018-07-08T12:25:29.355Z,30.00
2018-07-08T12:27:57.824Z,30.20
2018-07-08T12:32:54.404Z,30.20
2018-07-08T12:35:22.838Z,30.10
2018-07-08T12:37:51.376Z,30.20
2018-07-08T12:40:22.644Z,30.30
2018-07-08T12:42:51.083Z,30.20
2018-07-08T12:45:19.498Z,30.20
2018-07-08T12:47:47.949Z,30.30
2018-07-08T12:50:16.359Z,30.50
2018-07-08T12:52:44.797Z,30.50
2018-07-08T12:55:13.232Z,30.00
2018-07-08T12:57:41.712Z,29.80
2018-07-08T13:00:10.112Z,30.00
2018-07-08T13:02:38.542Z,30.30
2018-07-08T13:05:06.967Z,30.20
2018-07-08T13:07:35.411Z,29.60
2018-07-08T13:10:03.830Z,29.50
2018-07-08T13:12:32.296Z,29.70
2018-07-08T13:15:00.717Z,30.20
2018-07-08T13:17:29.242Z,30.60
2018-07-08T13:19:57.700Z,30.40
2018-07-08T13:22:26.108Z,30.40
2018-07-08T13:24:54.541Z,30.40
2018-07-08T13:27:22.996Z,30.40
2018-07-08T13:32:19.658Z,30.30
2018-07-08T13:34:48.183Z,30.40
2018-07-08T13:37:16.721Z,30.60
2018-07-08T13:39:45.167Z,30.70
2018-07-08T13:44:41.767Z,30.80
2018-07-08T13:47:10.183Z,30.90
2018-07-08T13:49:38.624Z,31.00
2018-07-08T13:52:07.032Z,30.80
2018-07-08T13:54:35.469Z,30.80
2018-07-08T13:57:03.879Z,30.70
2018-07-08T13:59:32.333Z,31.00
2018-07-08T14:02:00.745Z,31.40
2018-07-08T14:04:29.196Z,31.50
2018-07-08T14:06:57.596Z,31.70
2018-07-08T14:09:26.049Z,31.40
2018-07-08T14:11:54.484Z,31.20
2018-07-08T14:14:22.955Z,31.20
2018-07-08T14:16:52.078Z,31.00
2018-07-08T14:19:20.506Z,30.90
2018-07-08T14:21:48.948Z,30.90
2018-07-08T14:24:17.408Z,30.90
2018-07-08T14:26:45.822Z,30.80
2018-07-08T14:29:14.540Z,30.70
2018-07-08T14:31:42.986Z,30.90
2018-07-08T14:34:12.021Z,31.00
2018-07-08T14:36:40.419Z,31.10
2018-07-08T14:39:09.531Z,31.20
2018-07-08T14:41:37.926Z,31.30
2018-07-08T14:44:06.368Z,31.50
2018-07-08T14:46:36.402Z,31.40
2018-07-08T14:49:04.973Z,31.50
2018-07-08T14:51:33.650Z,31.50
2018-07-08T14:54:02.111Z,31.70
2018-07-08T14:56:30.515Z,31.70
2018-07-08T14:58:59.144Z,31.20
2018-07-08T15:01:27.557Z,30.80
2018-07-08T15:03:55.999Z,30.60
2018-07-08T15:06:24.416Z,30.70
2018-07-08T15:08:52.935Z,30.40
2018-07-08T15:11:21.360Z,30.50
2018-07-08T15:13:50.053Z,30.60
2018-07-08T15:16:18.505Z,30.40
2018-07-08T15:18:46.934Z,30.20
2018-07-08T15:23:43.516Z,30.30
2018-07-08T15:26:11.926Z,30.30
2018-07-08T15:28:40.362Z,30.10
2018-07-08T15:31:08.802Z,29.90
2018-07-08T15:33:37.243Z,29.70
2018-07-08T15:36:05.658Z,29.60
2018-07-08T15:38:34.527Z,29.50
2018-07-08T15:41:02.968Z,29.70
2018-07-08T15:43:31.860Z,29.50
2018-07-08T15:46:02.193Z,29.50
2018-07-08T15:48:31.296Z,29.50
2018-07-08T15:50:59.720Z,29.50
2018-07-08T15:53:28.193Z,29.40
2018-07-08T15:55:56.774Z,29.40
2018-07-08T15:58:25.307Z,29.30
2018-07-08T16:00:53.780Z,29.20
2018-07-08T16:03:22.222Z,29.00
2018-07-08T16:05:50.805Z,29.00
2018-07-08T16:08:19.281Z,28.90
2018-07-08T16:10:47.754Z,28.80
2018-07-08T16:13:16.292Z,28.70
2018-07-08T16:15:44.877Z,28.60
2018-07-08T16:18:13.303Z,28.30
2018-07-08T16:20:41.833Z,28.10
2018-07-08T16:23:10.256Z,28.10
2018-07-08T16:25:38.727Z,28.00
2018-07-08T16:28:07.207Z,28.10
2018-07-08T16:30:35.802Z,28.00
2018-07-08T16:33:04.176Z,28.00
2018-07-08T16:35:32.628Z,28.10
2018-07-08T16:38:01.033Z,28.10
2018-07-08T16:40:29.496Z,28.20
2018-07-08T16:42:58.020Z,28.30
2018-07-08T16:45:26.469Z,28.30
2018-07-08T16:47:54.932Z,28.30
2018-07-08T16:50:23.444Z,28.30
2018-07-08T16:52:51.882Z,28.20
2018-07-08T16:55:20.326Z,28.00
2018-07-08T16:57:48.795Z,27.80
2018-07-08T17:00:17.243Z,27.70
2018-07-08T17:02:45.705Z,27.70
2018-07-08T17:05:14.280Z,27.60
2018-07-08T17:07:43.004Z,27.50
2018-07-08T17:10:11.733Z,27.40
2018-07-08T17:12:40.211Z,27.40
2018-07-08T17:15:08.676Z,27.40
2018-07-08T17:17:37.150Z,27.40
2018-07-08T17:20:05.584Z,27.50
2018-07-08T17:22:34.029Z,27.50
2018-07-08T17:27:30.588Z,27.20
2018-07-08T17:29:59.031Z,27.00
2018-07-08T17:32:27.535Z,26.80
2018-07-08T17:34:55.984Z,26.70
2018-07-08T17:37:24.446Z,26.60
2018-07-08T17:39:53.044Z,26.50
2018-07-08T17:42:21.552Z,26.40
2018-07-08T17:44:50.023Z,26.30
2018-07-08T17:47:18.650Z,26.30
2018-07-08T17:49:47.215Z,26.20
2018-07-08T17:52:15.714Z,26.10
2018-07-08T17:54:44.482Z,26.00
2018-07-08T17:57:13.330Z,25.90
2018-07-08T17:59:42.031Z,25.80
2018-07-08T18:02:10.594Z,25.80
2018-07-08T18:04:39.420Z,25.70
2018-07-08T18:07:08.920Z,25.60
2018-07-08T18:09:37.900Z,25.50
2018-07-08T18:12:07.128Z,25.40
2018-07-08T18:14:36.052Z,25.30
2018-07-08T18:17:04.733Z,25.20
2018-07-08T18:19:33.396Z,25.10
2018-07-08T18:22:02.299Z,25.00
2018-07-08T18:24:30.937Z,24.90
2018-07-08T18:26:59.912Z,24.80
2018-07-08T18:29:28.369Z,24.70
2018-07-08T18:31:57.298Z,24.60
2018-07-08T18:34:25.872Z,24.50
2018-07-08T18:39:23.462Z,24.30
2018-07-08T18:41:52.008Z,24.10
2018-07-08T18:44:21.934Z,24.00
2018-07-08T18:46:51.127Z,24.00
2018-07-08T18:49:20.112Z,23.80
2018-07-08T18:51:48.882Z,23.80
2018-07-08T18:54:17.363Z,23.70
2018-07-08T18:56:45.897Z,23.60
2018-07-08T18:59:14.610Z,23.60
2018-07-08T19:01:43.403Z,23.50
2018-07-08T19:04:12.844Z,23.50
2018-07-08T19:06:41.567Z,23.40
2018-07-08T19:09:10.532Z,23.30
2018-07-08T19:11:39.227Z,23.30
2018-07-08T19:16:36.331Z,23.10
2018-07-08T19:19:05.429Z,23.00
2018-07-08T19:21:34.062Z,23.00
2018-07-08T19:24:02.873Z,22.90
2018-07-08T19:26:31.681Z,22.80
2018-07-08T19:29:00.655Z,22.70
2018-07-08T19:31:29.153Z,22.70
2018-07-08T19:33:57.665Z,22.60
2018-07-08T19:36:26.132Z,22.50
2018-07-08T19:38:54.641Z,22.50
2018-07-08T19:41:23.091Z,22.40
2018-07-08T19:43:51.642Z,22.20
2018-07-08T19:46:20.125Z,22.20
2018-07-08T19:48:48.885Z,22.10
2018-07-08T19:51:17.360Z,22.00
2018-07-08T19:53:48.331Z,21.80
2018-07-08T19:56:16.895Z,21.70
2018-07-08T19:58:45.356Z,21.70
2018-07-08T20:01:13.832Z,21.60
2018-07-08T20:03:42.388Z,21.50
2018-07-08T20:06:10.816Z,21.40
2018-07-08T20:11:07.572Z,21.30
2018-07-08T20:18:32.601Z,21.20
2018-07-08T20:23:29.342Z,21.10
2018-07-08T20:25:57.886Z,21.10
2018-07-08T20:28:26.324Z,21.10
2018-07-08T20:30:54.899Z,21.00
2018-07-08T20:33:23.332Z,21.00
2018-07-08T20:35:51.835Z,20.90
2018-07-08T20:38:20.279Z,20.80
2018-07-08T20:40:48.719Z,20.80
2018-07-08T20:43:17.231Z,20.70
2018-07-08T20:45:45.659Z,20.70
2018-07-08T20:48:14.239Z,20.60
2018-07-08T20:50:42.679Z,20.60
2018-07-08T20:53:11.275Z,20.50
2018-07-08T20:55:39.734Z,20.40
2018-07-08T20:58:08.236Z,20.40
2018-07-08T21:00:36.764Z,20.40
2018-07-08T21:03:05.285Z,20.30
2018-07-08T21:05:33.843Z,20.30
2018-07-08T21:08:02.284Z,20.30
2018-07-08T21:10:30.880Z,20.20
2018-07-08T21:12:59.316Z,20.20
2018-07-08T21:15:27.784Z,20.10
2018-07-08T21:17:56.212Z,20.10
2018-07-08T21:20:24.671Z,20.00
2018-07-08T21:22:53.170Z,20.00
2018-07-08T21:25:21.754Z,20.00
2018-07-08T21:27:50.266Z,19.90
2018-07-08T21:30:18.868Z,19.80
2018-07-08T21:32:47.326Z,19.80
2018-07-08T21:35:15.783Z,19.70
2018-07-08T21:37:44.361Z,19.70
2018-07-08T21:40:12.846Z,19.60
2018-07-08T21:42:41.248Z,19.50
2018-07-08T21:45:09.701Z,19.50
2018-07-08T21:47:38.130Z,19.50
2018-07-08T21:50:06.609Z,19.40
2018-07-08T21:52:35.215Z,19.30
2018-07-08T21:55:03.683Z,19.30
2018-07-08T21:57:32.137Z,19.20
2018-07-08T22:00:00.735Z,19.20
2018-07-08T22:02:29.160Z,19.20
2018-07-08T22:04:57.683Z,19.10
2018-07-08T22:07:30.407Z,19.10
2018-07-08T22:09:58.849Z,19.00
2018-07-08T22:12:27.255Z,19.00
2018-07-08T22:14:55.717Z,18.90
2018-07-08T22:17:24.163Z,18.90
2018-07-08T22:19:52.638Z,18.80
2018-07-08T22:22:21.087Z,18.80
2018-07-08T22:24:49.567Z,18.70
2018-07-08T22:27:17.986Z,18.70
2018-07-08T22:29:46.465Z,18.60
2018-07-08T22:32:14.951Z,18.60
2018-07-08T22:34:43.359Z,18.60
2018-07-08T22:37:11.809Z,18.60
2018-07-08T22:39:40.222Z,18.50
2018-07-08T22:42:08.664Z,18.50
2018-07-08T22:44:37.127Z,18.50
2018-07-08T22:47:05.598Z,18.50
2018-07-08T22:49:34.036Z,18.50
2018-07-08T22:52:02.541Z,18.50
2018-07-08T22:54:30.972Z,18.40
2018-07-08T22:56:59.461Z,18.40
2018-07-08T22:59:27.895Z,18.40
2018-07-08T23:02:07.582Z,18.30
2018-07-08T23:04:36.059Z,18.30
2018-07-08T23:07:04.518Z,18.30
2018-07-08T23:09:32.948Z,18.30
2018-07-08T23:12:01.406Z,18.30
2018-07-08T23:14:29.860Z,18.20
2018-07-08T23:16:58.334Z,18.20
2018-07-08T23:19:26.791Z,18.20
2018-07-08T23:21:55.256Z,18.10
2018-07-08T23:24:23.692Z,18.00
2018-07-08T23:26:52.188Z,17.90
2018-07-08T23:29:20.635Z,17.90
2018-07-08T23:31:49.240Z,17.80
2018-07-08T23:36:45.827Z,17.60
2018-07-08T23:39:14.257Z,17.60
2018-07-08T23:41:42.691Z,17.50
2018-07-08T23:44:11.119Z,17.50
2018-07-08T23:46:39.603Z,17.40
2018-07-08T23:49:08.028Z,17.40
2018-07-08T23:51:36.482Z,17.30
2018-07-08T23:54:04.916Z,17.30
2018-07-08T23:56:33.376Z,17.20
2018-07-08T23:59:01.776Z,17.20
